sensor_id;sensor_type;location;lat;lon;timestamp;pressure;altitude;pressure_sealevel;temperature;humidity
31299;BME280;17927;52.350;13.402;2023-03-25T00:00:15;99930.13;;;13.07;54.78
31299;BME280;17927;52.350;13.402;2023-03-25T00:02:43;99936.25;;;13.01;54.72
31299;BME280;17927;52.350;13.402;2023-03-25T00:05:09;99933.75;;;12.99;54.78
31299;BME280;17927;52.350;13.402;2023-03-25T00:07:35;99934.75;;;12.98;54.99
31299;BME280;17927;52.350;13.402;2023-03-25T00:10:00;99938.84;;;12.94;55.04
31299;BME280;17927;52.350;13.402;2023-03-25T00:12:26;99943.41;;;12.93;55.15
31299;BME280;17927;52.350;13.402;2023-03-25T00:14:51;99934.63;;;12.91;55.28
31299;BME280;17927;52.350;13.402;2023-03-25T00:17:20;99934.63;;;12.91;55.30
31299;BME280;17927;52.350;13.402;2023-03-25T00:19:46;99936.47;;;12.91;55.21
31299;BME280;17927;52.350;13.402;2023-03-25T00:22:14;99930.22;;;12.90;55.58
31299;BME280;17927;52.350;13.402;2023-03-25T00:24:39;99925.63;;;12.91;55.56
31299;BME280;17927;52.350;13.402;2023-03-25T00:27:05;99928.34;;;12.91;55.85
31299;BME280;17927;52.350;13.402;2023-03-25T00:29:30;99918.53;;;12.90;55.68
31299;BME280;17927;52.350;13.402;2023-03-25T00:31:55;99922.09;;;12.90;55.64
31299;BME280;17927;52.350;13.402;2023-03-25T00:34:20;99924.81;;;12.90;55.65
31299;BME280;17927;52.350;13.402;2023-03-25T00:36:46;99940.88;;;12.92;56.29
31299;BME280;17927;52.350;13.402;2023-03-25T00:39:12;99937.16;;;12.93;55.88
31299;BME280;17927;52.350;13.402;2023-03-25T00:41:37;99938.84;;;12.94;56.04
31299;BME280;17927;52.350;13.402;2023-03-25T00:44:05;99935.78;;;12.97;55.96
31299;BME280;17927;52.350;13.402;2023-03-25T00:46:32;99948.31;;;12.98;55.90
31299;BME280;17927;52.350;13.402;2023-03-25T00:48:58;99929.16;;;13.00;56.32
31299;BME280;17927;52.350;13.402;2023-03-25T00:51:25;99928.13;;;13.01;55.70
31299;BME280;17927;52.350;13.402;2023-03-25T00:53:52;99942.50;;;13.01;55.91
31299;BME280;17927;52.350;13.402;2023-03-25T00:56:18;99944.38;;;13.01;56.03
31299;BME280;17927;52.350;13.402;2023-03-25T00:58:44;99937.47;;;12.98;55.86
31299;BME280;17927;52.350;13.402;2023-03-25T01:01:12;99945.75;;;12.97;56.07
31299;BME280;17927;52.350;13.402;2023-03-25T01:03:38;99950.72;;;12.93;56.00
31299;BME280;17927;52.350;13.402;2023-03-25T01:06:12;99950.03;;;12.91;56.28
31299;BME280;17927;52.350;13.402;2023-03-25T01:08:39;99948.53;;;12.88;56.06
31299;BME280;17927;52.350;13.402;2023-03-25T01:11:05;99950.38;;;12.88;56.12
31299;BME280;17927;52.350;13.402;2023-03-25T01:13:32;99942.59;;;12.85;55.96
31299;BME280;17927;52.350;13.402;2023-03-25T01:15:57;99936.53;;;12.83;56.32
31299;BME280;17927;52.350;13.402;2023-03-25T01:18:22;99937.72;;;12.80;56.47
31299;BME280;17927;52.350;13.402;2023-03-25T01:20:48;99927.06;;;12.78;56.34
31299;BME280;17927;52.350;13.402;2023-03-25T01:23:13;99926.22;;;12.78;56.03
31299;BME280;17927;52.350;13.402;2023-03-25T01:25:38;99916.41;;;12.77;56.17
31299;BME280;17927;52.350;13.402;2023-03-25T01:28:04;99921.66;;;12.78;55.88
31299;BME280;17927;52.350;13.402;2023-03-25T01:30:29;99902.84;;;12.77;56.10
31299;BME280;17927;52.350;13.402;2023-03-25T01:32:55;99914.53;;;12.77;56.11
31299;BME280;17927;52.350;13.402;2023-03-25T01:35:20;99908.44;;;12.75;56.08
31299;BME280;17927;52.350;13.402;2023-03-25T01:37:47;99903.03;;;12.75;56.00
31299;BME280;17927;52.350;13.402;2023-03-25T01:40:18;99904.91;;;12.75;56.19
31299;BME280;17927;52.350;13.402;2023-03-25T01:42:43;99904.25;;;12.73;56.09
31299;BME280;17927;52.350;13.402;2023-03-25T01:47:40;99906.44;;;12.69;56.05
31299;BME280;17927;52.350;13.402;2023-03-25T01:50:06;99907.50;;;12.68;56.05
31299;BME280;17927;52.350;13.402;2023-03-25T01:52:32;99899.38;;;12.68;56.22
31299;BME280;17927;52.350;13.402;2023-03-25T01:54:58;99892.25;;;12.67;56.26
31299;BME280;17927;52.350;13.402;2023-03-25T01:57:24;99886.84;;;12.67;56.27
31299;BME280;17927;52.350;13.402;2023-03-25T01:59:50;99887.66;;;12.68;56.63
31299;BME280;17927;52.350;13.402;2023-03-25T02:02:17;99886.66;;;12.69;56.47
31299;BME280;17927;52.350;13.402;2023-03-25T02:04:54;99887.31;;;12.71;56.75
31299;BME280;17927;52.350;13.402;2023-03-25T02:07:28;99880.88;;;12.72;56.81
31299;BME280;17927;52.350;13.402;2023-03-25T02:10:02;99886.78;;;12.75;56.75
31299;BME280;17927;52.350;13.402;2023-03-25T02:12:29;99876.78;;;12.76;56.79
31299;BME280;17927;52.350;13.402;2023-03-25T02:14:55;99871.00;;;12.79;56.88
31299;BME280;17927;52.350;13.402;2023-03-25T02:17:44;99867.94;;;12.82;56.78
31299;BME280;17927;52.350;13.402;2023-03-25T02:28:19;99848.59;;;12.85;56.87
31299;BME280;17927;52.350;13.402;2023-03-25T02:31:10;99854.69;;;12.87;56.91
31299;BME280;17927;52.350;13.402;2023-03-25T02:34:32;99849.28;;;12.87;56.94
31299;BME280;17927;52.350;13.402;2023-03-25T02:40:08;99841.81;;;12.89;57.12
31299;BME280;17927;52.350;13.402;2023-03-25T02:42:53;99833.50;;;12.91;56.96
31299;BME280;17927;52.350;13.402;2023-03-25T02:45:27;99837.69;;;12.93;56.96
31299;BME280;17927;52.350;13.402;2023-03-25T02:47:59;99826.50;;;12.97;56.75
31299;BME280;17927;52.350;13.402;2023-03-25T02:50:31;99822.59;;;12.99;56.95
31299;BME280;17927;52.350;13.402;2023-03-25T02:52:58;99830.97;;;12.89;57.17
31299;BME280;17927;52.350;13.402;2023-03-25T02:55:26;99825.00;;;12.94;56.98
31299;BME280;17927;52.350;13.402;2023-03-25T02:57:55;99828.84;;;13.00;57.05
31299;BME280;17927;52.350;13.402;2023-03-25T03:00:26;99822.88;;;13.04;57.09
31299;BME280;17927;52.350;13.402;2023-03-25T03:02:57;99818.72;;;12.93;57.13
31299;BME280;17927;52.350;13.402;2023-03-25T03:05:26;99820.06;;;12.98;56.96
31299;BME280;17927;52.350;13.402;2023-03-25T03:07:59;99820.16;;;13.04;57.19
31299;BME280;17927;52.350;13.402;2023-03-25T03:10:59;99819.13;;;13.05;57.12
31299;BME280;17927;52.350;13.402;2023-03-25T03:16:13;99816.28;;;13.07;57.52
31299;BME280;17927;52.350;13.402;2023-03-25T03:18:50;99823.19;;;13.09;57.43
31299;BME280;17927;52.350;13.402;2023-03-25T03:21:32;99834.69;;;13.12;57.63
31299;BME280;17927;52.350;13.402;2023-03-25T03:24:09;99825.53;;;13.13;57.51
31299;BME280;17927;52.350;13.402;2023-03-25T03:26:42;99821.81;;;13.14;57.33
31299;BME280;17927;52.350;13.402;2023-03-25T03:29:16;99830.56;;;13.16;57.48
31299;BME280;17927;52.350;13.402;2023-03-25T03:32:07;99828.53;;;13.18;57.68
31299;BME280;17927;52.350;13.402;2023-03-25T03:34:42;99828.91;;;13.15;57.69
31299;BME280;17927;52.350;13.402;2023-03-25T03:37:13;99829.94;;;13.14;57.82
31299;BME280;17927;52.350;13.402;2023-03-25T03:39:40;99833.28;;;13.16;58.16
31299;BME280;17927;52.350;13.402;2023-03-25T03:42:17;99830.56;;;13.16;58.06
31299;BME280;17927;52.350;13.402;2023-03-25T03:44:49;99835.34;;;13.14;58.66
31299;BME280;17927;52.350;13.402;2023-03-25T03:47:21;99833.84;;;13.11;58.97
31299;BME280;17927;52.350;13.402;2023-03-25T03:49:52;99833.16;;;13.09;58.73
31299;BME280;17927;52.350;13.402;2023-03-25T03:52:22;99824.41;;;13.07;58.95
31299;BME280;17927;52.350;13.402;2023-03-25T03:54:55;99826.44;;;13.05;59.01
31299;BME280;17927;52.350;13.402;2023-03-25T03:57:30;99823.72;;;13.05;59.17
31299;BME280;17927;52.350;13.402;2023-03-25T04:00:12;99823.72;;;13.05;59.21
31299;BME280;17927;52.350;13.402;2023-03-25T04:02:43;99831.00;;;13.04;59.05
31299;BME280;17927;52.350;13.402;2023-03-25T04:05:14;99834.56;;;13.05;59.14
31299;BME280;17927;52.350;13.402;2023-03-25T04:07:44;99828.97;;;13.06;59.36
31299;BME280;17927;52.350;13.402;2023-03-25T04:10:22;99833.56;;;13.06;59.21
31299;BME280;17927;52.350;13.402;2023-03-25T04:12:54;99839.81;;;13.06;59.06
31299;BME280;17927;52.350;13.402;2023-03-25T04:15:21;99828.97;;;13.06;59.12
31299;BME280;17927;52.350;13.402;2023-03-25T04:17:47;99833.16;;;13.09;59.06
31299;BME280;17927;52.350;13.402;2023-03-25T04:20:13;99835.72;;;13.10;59.23
31299;BME280;17927;52.350;13.402;2023-03-25T04:22:40;99836.38;;;13.13;58.74
31299;BME280;17927;52.350;13.402;2023-03-25T04:25:10;99839.09;;;13.13;59.00
31299;BME280;17927;52.350;13.402;2023-03-25T04:27:36;99837.88;;;13.15;58.87
31299;BME280;17927;52.350;13.402;2023-03-25T04:30:03;99839.56;;;13.16;58.81
31299;BME280;17927;52.350;13.402;2023-03-25T04:32:29;99833.78;;;13.19;58.74
31299;BME280;17927;52.350;13.402;2023-03-25T04:34:55;99834.59;;;13.20;58.68
31299;BME280;17927;52.350;13.402;2023-03-25T04:37:23;99834.25;;;13.23;58.69
31299;BME280;17927;52.350;13.402;2023-03-25T04:39:50;99842.38;;;13.23;58.70
31299;BME280;17927;52.350;13.402;2023-03-25T04:42:15;99845.28;;;13.21;58.56
31299;BME280;17927;52.350;13.402;2023-03-25T04:44:42;99841.72;;;13.21;58.66
31299;BME280;17927;52.350;13.402;2023-03-25T04:47:11;99841.06;;;13.19;58.48
31299;BME280;17927;52.350;13.402;2023-03-25T04:49:39;99843.28;;;13.15;58.06
31299;BME280;17927;52.350;13.402;2023-03-25T04:52:05;99837.03;;;13.15;58.33
31299;BME280;17927;52.350;13.402;2023-03-25T04:54:33;99836.38;;;13.13;58.34
31299;BME280;17927;52.350;13.402;2023-03-25T04:56:58;99840.28;;;13.10;58.37
31299;BME280;17927;52.350;13.402;2023-03-25T04:59:24;99835.06;;;13.08;58.10
31299;BME280;17927;52.350;13.402;2023-03-25T05:01:49;99844.00;;;13.09;58.10
31299;BME280;17927;52.350;13.402;2023-03-25T05:04:16;99833.38;;;13.07;57.99
31299;BME280;17927;52.350;13.402;2023-03-25T05:06:43;99842.50;;;13.06;58.02
31299;BME280;17927;52.350;13.402;2023-03-25T05:09:14;99832.69;;;13.05;57.86
31299;BME280;17927;52.350;13.402;2023-03-25T05:11:41;99833.06;;;13.02;57.73
31299;BME280;17927;52.350;13.402;2023-03-25T05:14:08;99833.06;;;13.02;57.59
31299;BME280;17927;52.350;13.402;2023-03-25T05:16:33;99835.97;;;13.01;57.59
31299;BME280;17927;52.350;13.402;2023-03-25T05:18:59;99837.81;;;13.00;57.32
31299;BME280;17927;52.350;13.402;2023-03-25T05:21:24;99834.47;;;12.98;57.32
31299;BME280;17927;52.350;13.402;2023-03-25T05:23:50;99833.59;;;12.98;57.26
31299;BME280;17927;52.350;13.402;2023-03-25T05:26:16;99831.91;;;12.97;57.23
31299;BME280;17927;52.350;13.402;2023-03-25T05:28:42;99832.94;;;12.95;57.23
31299;BME280;17927;52.350;13.402;2023-03-25T05:31:07;99820.59;;;12.93;57.34
31299;BME280;17927;52.350;13.402;2023-03-25T05:33:37;99822.44;;;12.92;57.30
31299;BME280;17927;52.350;13.402;2023-03-25T05:36:09;99831.63;;;12.91;57.12
31299;BME280;17927;52.350;13.402;2023-03-25T05:38:35;99830.78;;;12.91;57.32
31299;BME280;17927;52.350;13.402;2023-03-25T05:41:01;99834.34;;;12.91;57.04
31299;BME280;17927;52.350;13.402;2023-03-25T05:43:26;99842.94;;;12.95;57.52
31299;BME280;17927;52.350;13.402;2023-03-25T05:45:53;99845.94;;;13.00;57.44
31299;BME280;17927;52.350;13.402;2023-03-25T05:48:18;99844.69;;;13.11;57.52
31299;BME280;17927;52.350;13.402;2023-03-25T05:50:43;99849.84;;;13.21;57.44
31299;BME280;17927;52.350;13.402;2023-03-25T05:53:13;99849.59;;;13.31;57.41
31299;BME280;17927;52.350;13.402;2023-03-25T05:55:39;99853.44;;;13.36;57.20
31299;BME280;17927;52.350;13.402;2023-03-25T05:58:04;99859.38;;;13.40;57.17
31299;BME280;17927;52.350;13.402;2023-03-25T06:00:30;99859.22;;;13.42;56.93
31299;BME280;17927;52.350;13.402;2023-03-25T06:02:56;99861.94;;;13.42;56.99
31299;BME280;17927;52.350;13.402;2023-03-25T06:05:23;99860.03;;;13.42;56.73
31299;BME280;17927;52.350;13.402;2023-03-25T06:07:50;99868.19;;;13.42;56.78
31299;BME280;17927;52.350;13.402;2023-03-25T06:10:16;99871.75;;;13.43;56.65
31299;BME280;17927;52.350;13.402;2023-03-25T06:12:43;99862.59;;;13.44;56.57
31299;BME280;17927;52.350;13.402;2023-03-25T06:15:10;99866.78;;;13.46;56.75
31299;BME280;17927;52.350;13.402;2023-03-25T06:17:36;99879.13;;;13.49;56.60
31299;BME280;17927;52.350;13.402;2023-03-25T06:20:09;99867.25;;;13.50;56.44
31299;BME280;17927;52.350;13.402;2023-03-25T06:22:38;99867.25;;;13.50;56.63
31299;BME280;17927;52.350;13.402;2023-03-25T06:25:03;99872.69;;;13.50;56.70
31299;BME280;17927;52.350;13.402;2023-03-25T06:27:29;99879.81;;;13.51;56.68
31299;BME280;17927;52.350;13.402;2023-03-25T06:29:58;99876.94;;;13.52;56.56
31299;BME280;17927;52.350;13.402;2023-03-25T06:32:23;99885.06;;;13.52;56.94
31299;BME280;17927;52.350;13.402;2023-03-25T06:34:49;99876.25;;;13.50;56.83
31299;BME280;17927;52.350;13.402;2023-03-25T06:37:15;99883.19;;;13.53;56.89
31299;BME280;17927;52.350;13.402;2023-03-25T06:39:40;99874.00;;;13.54;56.88
31299;BME280;17927;52.350;13.402;2023-03-25T06:42:05;99881.13;;;13.55;57.05
31299;BME280;17927;52.350;13.402;2023-03-25T06:44:31;99876.16;;;13.59;57.08
31299;BME280;17927;52.350;13.402;2023-03-25T06:46:56;99877.50;;;13.63;57.26
31299;BME280;17927;52.350;13.402;2023-03-25T06:49:22;99883.22;;;13.68;57.22
31299;BME280;17927;52.350;13.402;2023-03-25T06:51:47;99879.28;;;13.70;57.31
31299;BME280;17927;52.350;13.402;2023-03-25T06:54:12;99870.78;;;13.74;57.07
31299;BME280;17927;52.350;13.402;2023-03-25T06:56:38;99881.44;;;13.75;57.15
31299;BME280;17927;52.350;13.402;2023-03-25T06:59:04;99874.97;;;13.76;56.86
31299;BME280;17927;52.350;13.402;2023-03-25T07:01:30;99878.56;;;13.77;57.07
31299;BME280;17927;52.350;13.402;2023-03-25T07:03:55;99875.66;;;13.78;56.93
31299;BME280;17927;52.350;13.402;2023-03-25T07:06:21;99872.94;;;13.78;56.93
31299;BME280;17927;52.350;13.402;2023-03-25T07:08:47;99881.91;;;13.79;57.18
31299;BME280;17927;52.350;13.402;2023-03-25T07:11:14;99877.53;;;13.78;56.78
31299;BME280;17927;52.350;13.402;2023-03-25T07:13:40;99888.19;;;13.79;56.91
31299;BME280;17927;52.350;13.402;2023-03-25T07:16:05;99887.63;;;13.84;57.19
31299;BME280;17927;52.350;13.402;2023-03-25T07:18:31;99885.88;;;13.91;57.34
31299;BME280;17927;52.350;13.402;2023-03-25T07:20:56;99882.59;;;13.96;56.98
31299;BME280;17927;52.350;13.402;2023-03-25T07:23:22;99889.81;;;14.04;57.32
31299;BME280;17927;52.350;13.402;2023-03-25T07:25:47;99888.66;;;14.13;57.19
31299;BME280;17927;52.350;13.402;2023-03-25T07:28:12;99896.53;;;14.23;57.29
31299;BME280;17927;52.350;13.402;2023-03-25T07:30:37;99898.78;;;14.34;57.11
31299;BME280;17927;52.350;13.402;2023-03-25T07:33:03;99895.59;;;14.45;56.65
31299;BME280;17927;52.350;13.402;2023-03-25T07:35:28;99898.19;;;14.54;56.55
31299;BME280;17927;52.350;13.402;2023-03-25T07:37:53;99899.97;;;14.61;56.52
31299;BME280;17927;52.350;13.402;2023-03-25T07:40:18;99897.19;;;14.70;56.18
31299;BME280;17927;52.350;13.402;2023-03-25T07:42:44;99891.63;;;14.78;55.82
31299;BME280;17927;52.350;13.402;2023-03-25T07:45:10;99893.38;;;14.86;55.59
31299;BME280;17927;52.350;13.402;2023-03-25T07:47:35;99892.19;;;14.95;55.47
31299;BME280;17927;52.350;13.402;2023-03-25T07:50:01;99891.25;;;15.03;55.04
31299;BME280;17927;52.350;13.402;2023-03-25T07:52:26;99887.56;;;15.11;54.98
31299;BME280;17927;52.350;13.402;2023-03-25T07:54:51;99891.84;;;15.20;54.64
31299;BME280;17927;52.350;13.402;2023-03-25T07:57:17;99895.44;;;15.27;54.57
31299;BME280;17927;52.350;13.402;2023-03-25T07:59:42;99902.41;;;15.30;53.73
31299;BME280;17927;52.350;13.402;2023-03-25T08:02:11;99910.56;;;15.30;53.62
31299;BME280;17927;52.350;13.402;2023-03-25T08:04:37;99900.72;;;15.29;53.24
31299;BME280;17927;52.350;13.402;2023-03-25T08:07:02;99894.69;;;15.33;53.36
31299;BME280;17927;52.350;13.402;2023-03-25T08:09:28;99895.59;;;15.41;52.76
31299;BME280;17927;52.350;13.402;2023-03-25T08:11:53;99890.22;;;15.47;52.03
31299;BME280;17927;52.350;13.402;2023-03-25T08:14:18;99891.53;;;15.58;52.35
31299;BME280;17927;52.350;13.402;2023-03-25T08:16:44;99900.22;;;15.68;52.36
31299;BME280;17927;52.350;13.402;2023-03-25T08:19:09;99894.66;;;15.83;52.41
31299;BME280;17927;52.350;13.402;2023-03-25T08:21:35;99890.59;;;15.94;51.90
31299;BME280;17927;52.350;13.402;2023-03-25T08:24:00;99886.03;;;16.02;51.52
31299;BME280;17927;52.350;13.402;2023-03-25T08:26:31;99892.75;;;16.06;51.43
31299;BME280;17927;52.350;13.402;2023-03-25T08:28:58;99898.66;;;16.09;51.09
31299;BME280;17927;52.350;13.402;2023-03-25T08:31:24;99897.16;;;16.07;50.49
31299;BME280;17927;52.350;13.402;2023-03-25T08:33:49;99897.38;;;16.05;50.42
31299;BME280;17927;52.350;13.402;2023-03-25T08:36:15;99904.50;;;16.06;50.50
31299;BME280;17927;52.350;13.402;2023-03-25T08:38:45;99898.00;;;16.07;50.42
31299;BME280;17927;52.350;13.402;2023-03-25T08:41:10;99898.66;;;16.09;50.64
31299;BME280;17927;52.350;13.402;2023-03-25T08:43:35;99902.41;;;16.08;49.93
31299;BME280;17927;52.350;13.402;2023-03-25T08:46:00;99897.38;;;16.05;49.68
31299;BME280;17927;52.350;13.402;2023-03-25T08:48:26;99909.69;;;16.01;49.32
31299;BME280;17927;52.350;13.402;2023-03-25T08:50:51;99898.38;;;15.97;49.41
31299;BME280;17927;52.350;13.402;2023-03-25T08:53:17;99896.47;;;15.98;49.45
31299;BME280;17927;52.350;13.402;2023-03-25T08:55:42;99900.06;;;15.98;49.39
31299;BME280;17927;52.350;13.402;2023-03-25T08:58:08;99892.69;;;15.99;49.12
31299;BME280;17927;52.350;13.402;2023-03-25T09:00:34;99894.59;;;15.98;48.90
31299;BME280;17927;52.350;13.402;2023-03-25T09:03:02;99887.91;;;16.01;49.22
31299;BME280;17927;52.350;13.402;2023-03-25T09:05:27;99895.91;;;16.03;48.67
31299;BME280;17927;52.350;13.402;2023-03-25T09:07:53;99897.38;;;16.05;48.64
31299;BME280;17927;52.350;13.402;2023-03-25T09:10:18;99904.69;;;16.05;48.49
31299;BME280;17927;52.350;13.402;2023-03-25T09:12:43;99895.28;;;16.07;47.87
31299;BME280;17927;52.350;13.402;2023-03-25T09:15:09;99892.34;;;16.09;48.14
31299;BME280;17927;52.350;13.402;2023-03-25T09:17:36;99889.44;;;16.10;47.86
31299;BME280;17927;52.350;13.402;2023-03-25T09:20:01;99903.47;;;16.07;47.78
31299;BME280;17927;52.350;13.402;2023-03-25T09:22:26;99892.13;;;16.04;47.44
31299;BME280;17927;52.350;13.402;2023-03-25T09:24:51;99896.28;;;16.00;47.48
31299;BME280;17927;52.350;13.402;2023-03-25T09:27:17;99891.88;;;15.98;47.62
31299;BME280;17927;52.350;13.402;2023-03-25T09:29:42;99887.69;;;15.96;47.07
31299;BME280;17927;52.350;13.402;2023-03-25T09:32:07;99897.94;;;15.94;47.33
31299;BME280;17927;52.350;13.402;2023-03-25T09:34:33;99890.97;;;15.91;47.12
31299;BME280;17927;52.350;13.402;2023-03-25T09:36:58;99894.50;;;15.85;47.11
31299;BME280;17927;52.350;13.402;2023-03-25T09:39:24;99898.44;;;15.82;47.31
31299;BME280;17927;52.350;13.402;2023-03-25T09:42:00;99896.56;;;15.83;47.11
31299;BME280;17927;52.350;13.402;2023-03-25T09:44:46;99902.00;;;15.83;47.23
31299;BME280;17927;52.350;13.402;2023-03-25T09:47:18;99901.16;;;15.82;47.34
31299;BME280;17927;52.350;13.402;2023-03-25T09:49:47;99898.06;;;15.86;47.32
31299;BME280;17927;52.350;13.402;2023-03-25T09:52:24;99901.44;;;15.88;46.82
31299;BME280;17927;52.350;13.402;2023-03-25T09:54:54;99917.38;;;15.91;46.84
31299;BME280;17927;52.350;13.402;2023-03-25T09:57:30;99904.81;;;15.90;46.66
31299;BME280;17927;52.350;13.402;2023-03-25T09:59:56;99900.19;;;15.90;46.51
31299;BME280;17927;52.350;13.402;2023-03-25T10:02:39;99895.38;;;15.92;46.44
31299;BME280;17927;52.350;13.402;2023-03-25T10:05:15;99912.75;;;15.91;46.68
31299;BME280;17927;52.350;13.402;2023-03-25T10:10:38;99903.16;;;15.95;46.90
31299;BME280;17927;52.350;13.402;2023-03-25T10:15:52;99888.97;;;16.07;47.14
31299;BME280;17927;52.350;13.402;2023-03-25T10:21:19;99888.25;;;16.26;46.70
31299;BME280;17927;52.350;13.402;2023-03-25T10:26:58;99891.94;;;16.47;47.00
31299;BME280;17927;52.350;13.402;2023-03-25T10:29:42;99883.16;;;16.58;46.74
31299;BME280;17927;52.350;13.402;2023-03-25T10:32:15;99890.56;;;16.71;46.76
31299;BME280;17927;52.350;13.402;2023-03-25T10:34:47;99889.31;;;16.81;46.24
31299;BME280;17927;52.350;13.402;2023-03-25T10:37:22;99888.94;;;16.90;46.38
31299;BME280;17927;52.350;13.402;2023-03-25T10:39:49;99884.16;;;16.99;45.74
31299;BME280;17927;52.350;13.402;2023-03-25T10:42:38;99877.91;;;17.12;45.65
31299;BME280;17927;52.350;13.402;2023-03-25T10:45:13;99875.78;;;17.14;44.73
31299;BME280;17927;52.350;13.402;2023-03-25T10:47:39;99877.91;;;17.19;44.67
31299;BME280;17927;52.350;13.402;2023-03-25T10:50:06;99869.28;;;17.22;44.94
31299;BME280;17927;52.350;13.402;2023-03-25T10:52:33;99885.25;;;17.25;44.90
31299;BME280;17927;52.350;13.402;2023-03-25T10:54:58;99879.78;;;17.25;44.53
31299;BME280;17927;52.350;13.402;2023-03-25T10:57:28;99880.41;;;17.20;43.96
31299;BME280;17927;52.350;13.402;2023-03-25T11:00:04;99890.06;;;17.16;43.81
31299;BME280;17927;52.350;13.402;2023-03-25T11:02:30;99863.63;;;17.10;44.08
31299;BME280;17927;52.350;13.402;2023-03-25T11:05:00;99867.19;;;17.11;43.98
31299;BME280;17927;52.350;13.402;2023-03-25T11:07:32;99868.44;;;17.15;44.28
31299;BME280;17927;52.350;13.402;2023-03-25T11:12:40;99878.50;;;17.21;44.19
31299;BME280;17927;52.350;13.402;2023-03-25T11:15:20;99867.59;;;17.21;44.07
31299;BME280;17927;52.350;13.402;2023-03-25T11:17:47;99881.03;;;17.16;43.80
31299;BME280;17927;52.350;13.402;2023-03-25T11:20:21;99885.63;;;17.09;43.63
31299;BME280;17927;52.350;13.402;2023-03-25T11:22:52;99866.53;;;17.02;43.70
31299;BME280;17927;52.350;13.402;2023-03-25T11:25:29;99860.66;;;17.05;44.07
31299;BME280;17927;52.350;13.402;2023-03-25T11:28:01;99852.06;;;17.08;44.25
31299;BME280;17927;52.350;13.402;2023-03-25T11:30:27;99865.72;;;17.15;44.50
31299;BME280;17927;52.350;13.402;2023-03-25T11:33:03;99854.59;;;17.23;44.30
31299;BME280;17927;52.350;13.402;2023-03-25T11:35:31;99854.19;;;17.33;44.43
31299;BME280;17927;52.350;13.402;2023-03-25T11:38:00;99842.22;;;17.41;44.08
31299;BME280;17927;52.350;13.402;2023-03-25T11:40:28;99844.53;;;17.44;43.42
31299;BME280;17927;52.350;13.402;2023-03-25T11:42:59;99842.84;;;17.43;43.58
31299;BME280;17927;52.350;13.402;2023-03-25T11:45:33;99839.88;;;17.44;43.38
31299;BME280;17927;52.350;13.402;2023-03-25T11:48:01;99836.09;;;17.52;43.74
31299;BME280;17927;52.350;13.402;2023-03-25T11:50:33;99837.38;;;17.63;43.23
31299;BME280;17927;52.350;13.402;2023-03-25T11:53:00;99838.63;;;17.74;42.34
31299;BME280;17927;52.350;13.402;2023-03-25T11:55:47;99830.81;;;17.77;41.85
31299;BME280;17927;52.350;13.402;2023-03-25T11:58:17;99841.97;;;17.76;41.92
31299;BME280;17927;52.350;13.402;2023-03-25T12:00:47;99848.50;;;17.75;42.16
31299;BME280;17927;52.350;13.402;2023-03-25T12:05:40;99834.63;;;17.63;41.91
31299;BME280;17927;52.350;13.402;2023-03-25T12:08:09;99827.94;;;17.59;42.02
31299;BME280;17927;52.350;13.402;2023-03-25T12:10:54;99830.44;;;17.60;42.41
31299;BME280;17927;52.350;13.402;2023-03-25T12:13:32;99820.78;;;17.64;42.48
31299;BME280;17927;52.350;13.402;2023-03-25T12:19:14;99811.50;;;17.86;43.14
31299;BME280;17927;52.350;13.402;2023-03-25T12:30:01;99798.25;;;17.89;41.94
31299;BME280;17927;52.350;13.402;2023-03-25T12:32:44;99808.75;;;17.86;41.72
31299;BME280;17927;52.350;13.402;2023-03-25T12:38:12;99806.69;;;17.81;41.91
31299;BME280;17927;52.350;13.402;2023-03-25T12:43:34;99800.16;;;17.82;42.10
31299;BME280;17927;52.350;13.402;2023-03-25T12:46:28;99798.66;;;17.86;42.54
31299;BME280;17927;52.350;13.402;2023-03-25T12:52:12;99788.06;;;18.23;43.40
31299;BME280;17927;52.350;13.402;2023-03-25T13:01:09;99767.13;;;18.81;42.01
31299;BME280;17927;52.350;13.402;2023-03-25T13:03:57;99764.13;;;18.90;41.29
31299;BME280;17927;52.350;13.402;2023-03-25T13:09:27;99779.84;;;19.01;40.77
31299;BME280;17927;52.350;13.402;2023-03-25T13:12:02;99769.47;;;19.10;40.64
31299;BME280;17927;52.350;13.402;2023-03-25T13:14:33;99751.47;;;19.21;40.39
31299;BME280;17927;52.350;13.402;2023-03-25T13:17:04;99745.53;;;19.24;39.22
31299;BME280;17927;52.350;13.402;2023-03-25T13:19:31;99753.75;;;19.24;39.36
31299;BME280;17927;52.350;13.402;2023-03-25T13:22:07;99747.56;;;19.35;39.45
31299;BME280;17927;52.350;13.402;2023-03-25T13:24:59;99757.31;;;19.50;39.02
31299;BME280;17927;52.350;13.402;2023-03-25T13:27:30;99748.78;;;19.58;38.90
31299;BME280;17927;52.350;13.402;2023-03-25T13:29:57;99754.06;;;19.59;38.55
31299;BME280;17927;52.350;13.402;2023-03-25T13:32:28;99766.13;;;19.52;38.65
31299;BME280;17927;52.350;13.402;2023-03-25T13:35:12;99764.59;;;19.37;39.46
31299;BME280;17927;52.350;13.402;2023-03-25T13:37:45;99778.22;;;19.19;39.86
31299;BME280;17927;52.350;13.402;2023-03-25T13:40:25;99775.00;;;19.03;40.41
31299;BME280;17927;52.350;13.402;2023-03-25T13:45:49;99795.22;;;18.63;42.01
31299;BME280;17927;52.350;13.402;2023-03-25T13:48:21;99791.34;;;18.39;42.83
31299;BME280;17927;52.350;13.402;2023-03-25T13:50:50;99820.50;;;18.13;42.77
31299;BME280;17927;52.350;13.402;2023-03-25T13:53:22;99858.56;;;17.88;42.87
31299;BME280;17927;52.350;13.402;2023-03-25T13:59:14;99847.44;;;17.02;43.91
31299;BME280;17927;52.350;13.402;2023-03-25T14:04:47;99833.84;;;16.53;44.76
31299;BME280;17927;52.350;13.402;2023-03-25T14:10:22;99821.44;;;16.37;45.12
31299;BME280;17927;52.350;13.402;2023-03-25T14:12:55;99823.94;;;16.32;45.17
31299;BME280;17927;52.350;13.402;2023-03-25T14:15:28;99818.47;;;16.32;45.40